Terminal Aerodrome Forecast
Issued by NWS Grand Forks, ND

Home | Current Version | Previous Version | Text Only | Print | Product List | Glossary Off
Versions: 1 2 3 4 5 6 7 8 9 10 11 12 13 14 15 16 17 18 19 20 21 22 23

904
FTUS43 KFGF 081137
TAFFAR
TAF
KFAR 081137Z 0812/0912 34028G36KT 1/2SM BLSN OVC005
      TEMPO 0812/0813 1SM BLSN
     FM081400 34025G32KT 3SM -SN BLSN OVC015
     FM081600 34024G31KT P6SM BKN025
     FM090000 34012KT P6SM SCT050=

USA.gov is the U.S. government's official web portal to all federal, state and local government web resources and services.